Weather at Gørlev Flyveplads

Public forecast

Using degrees Celsius for public forecast. Weather courtesy of forecast.io.

Closest aviation weather report (METAR) to Gørlev Flyveplads

Closest report is Ringsted Airfield, 22.2 nm (41.0 km) ESE.

2024/05/21 00:50 (retrieved 17 minutes ago)

EKRS 210050Z AUTO 10009KT 060V120 //// // NCD 13/13 Q1016

Closest aviation forecast (TAF) to Gørlev Flyveplads

Closest forecast is Leeuwarden Air Base, 235.6 nm (436.4 km) SW.

2024/05/20 21:06 (retrieved 4 hours ago)

TAF TAF EHLW 202031Z 2021/2109 07006KT 9999 CAVOK PROB30 2021/2103 4000 BR MIFG PROB30 TEMPO 2104/2106 SCT005